Time;durP1;ratioP1;P1;durP2;ratioP2;P2;SDS_P1;SDS_P2;PMS_P1;PMS_P2;Temp;Humidity;BMP_temperature;BMP_pressure;BME280_temperature;BME280_humidity;BME280_pressure;Samples;Min_cycle;Max_cycle;Signal;HPM_P1;HPM_P2
2021/05/28 00:00:33;;;;;;;12.80;9.33;;;;;;;14.65;100.00;99197.81;1573775;89;21624;-66
2021/05/28 00:03:00;;;;;;;11.40;8.10;;;;;;;14.63;100.00;99202.72;1602765;87;21699;-65
2021/05/28 00:05:27;;;;;;;10.45;8.63;;;;;;;14.64;100.00;99201.62;1620492;87;21078;-65
2021/05/28 00:07:55;;;;;;;18.15;8.73;;;;;;;14.64;100.00;99207.02;1619982;87;20998;-67
2021/05/28 00:10:23;;;;;;;11.00;9.00;;;;;;;14.62;100.00;99204.59;1608379;87;21044;-65
2021/05/28 00:12:51;;;;;;;12.55;10.08;;;;;;;14.64;100.00;99207.81;1608220;87;21060;-68
2021/05/28 00:15:19;;;;;;;10.00;9.00;;;;;;;14.63;100.00;99208.13;1607653;87;20909;-67
2021/05/28 00:17:46;;;;;;;12.28;9.43;;;;;;;14.63;100.00;99207.57;1615417;88;21147;-67
2021/05/28 00:20:14;;;;;;;10.65;8.30;;;;;;;14.63;100.00;99210.83;1626623;87;21018;-67
2021/05/28 00:22:42;;;;;;;14.38;9.03;;;;;;;14.63;100.00;99210.27;1603515;87;21069;-66
2021/05/28 00:25:10;;;;;;;10.32;7.28;;;;;;;14.63;100.00;99204.08;1616557;87;20996;-66
2021/05/28 00:27:38;;;;;;;11.18;7.42;;;;;;;14.64;100.00;99206.47;1608023;87;20938;-66
2021/05/28 00:30:07;;;;;;;10.80;9.03;;;;;;;14.64;100.00;99200.27;1621593;87;21190;-67
2021/05/28 00:32:35;;;;;;;8.15;7.35;;;;;;;14.61;100.00;99196.80;1609581;87;21634;-67
2021/05/28 00:35:04;;;;;;;12.05;8.30;;;;;;;14.57;100.00;99197.36;1608438;87;21006;-68
2021/05/28 00:37:30;;;;;;;;;;;;;;;14.53;100.00;99196.87;1609620;87;21059;-67
2021/05/28 00:39:58;;;;;;;10.32;8.23;;;;;;;14.50;100.00;99196.07;1618127;87;20230;-67
2021/05/28 00:42:25;;;;;;;12.07;8.58;;;;;;;14.50;100.00;99197.42;1659596;85;21191;-66
2021/05/28 00:44:55;;;;;;;8.78;7.95;;;;;;;14.51;100.00;99197.14;1666738;85;20991;-66
2021/05/28 00:47:24;;;;;;;11.12;9.50;;;;;;;14.50;100.00;99192.84;1659020;85;20984;-66
2021/05/28 00:49:51;;;;;;;10.60;9.48;;;;;;;14.50;100.00;99192.02;1663275;85;21016;-67
2021/05/28 00:52:19;;;;;;;10.90;9.53;;;;;;;14.51;100.00;99192.30;1665882;85;20913;-64
2021/05/28 00:54:46;;;;;;;14.43;10.85;;;;;;;14.49;100.00;99185.82;1657405;85;21158;-65
2021/05/28 00:57:13;;;;;;;12.85;11.15;;;;;;;14.48;100.00;99185.58;1660659;85;20993;-65
2021/05/28 00:59:42;;;;;;;13.22;11.75;;;;;;;14.45;100.00;99181.28;1656647;85;20972;-65
2021/05/28 01:02:09;;;;;;;24.72;15.32;;;;;;;14.42;100.00;99177.81;1668033;85;21147;-65
2021/05/28 01:04:37;;;;;;;18.82;16.85;;;;;;;14.41;100.00;99181.62;1666448;85;20984;-65
2021/05/28 01:07:05;;;;;;;;;;;;;;;14.41;100.00;99178.92;1659050;85;22397;-64
2021/05/28 01:09:32;;;;;;;20.60;17.07;;;;;;;14.42;100.00;99173.77;1634413;85;20600;-64
2021/05/28 01:12:00;;;;;;;18.62;16.42;;;;;;;14.42;100.00;99179.16;1656121;85;20977;-63
2021/05/28 01:14:26;;;;;;;20.00;17.85;;;;;;;14.42;100.00;99180.52;1661435;85;21019;-64
2021/05/28 01:16:55;;;;;;;19.67;16.35;;;;;;;14.40;100.00;99176.74;1660574;85;20952;-63
2021/05/28 01:19:25;;;;;;;15.80;14.18;;;;;;;14.40;100.00;99181.34;1671914;85;21525;-64
2021/05/28 01:21:53;;;;;;;20.02;17.77;;;;;;;14.36;100.00;99177.87;1657050;85;20993;-63
2021/05/28 01:24:22;;;;;;;17.73;15.90;;;;;;;14.34;100.00;99176.00;1646914;85;20996;-64
2021/05/28 01:26:49;;;;;;;20.23;18.10;;;;;;;14.34;100.00;99169.25;1662579;85;20936;-64
2021/05/28 01:29:17;;;;;;;18.35;16.30;;;;;;;14.33;100.00;99166.31;1672734;85;20958;-64
2021/05/28 01:31:44;;;;;;;19.52;15.85;;;;;;;14.34;100.00;99162.50;1660123;85;21126;-64
2021/05/28 01:34:11;;;;;;;16.75;14.83;;;;;;;14.36;100.00;99175.73;1665640;85;21048;-62
2021/05/28 01:36:38;;;;;;;17.32;15.45;;;;;;;14.34;100.00;99177.36;1661123;85;20968;-63
2021/05/28 01:39:05;;;;;;;17.85;15.20;;;;;;;14.34;100.00;99169.81;1651781;85;21104;-65
2021/05/28 01:41:32;;;;;;;16.23;13.45;;;;;;;14.33;100.00;99167.66;1630133;87;21013;-65
2021/05/28 01:43:59;;;;;;;16.57;13.70;;;;;;;14.31;100.00;99176.59;1631699;87;21117;-65
2021/05/28 01:46:29;;;;;;;14.25;12.73;;;;;;;14.27;100.00;99172.84;1633013;87;20926;-65
2021/05/28 01:48:55;;;;;;;16.65;12.58;;;;;;;14.26;100.00;99173.15;1631115;87;20958;-65
2021/05/28 01:51:22;;;;;;;17.12;13.43;;;;;;;14.24;100.00;99172.08;1626775;87;21057;-64
2021/05/28 01:53:50;;;;;;;13.95;12.40;;;;;;;14.24;100.00;99170.73;1631913;87;21745;-65
2021/05/28 01:56:17;;;;;;;12.05;10.48;;;;;;;14.24;100.00;99168.02;1633105;87;21084;-64
2021/05/28 01:58:45;;;;;;;;;;;;;;;14.21;100.00;99167.26;1628380;87;20926;-66
2021/05/28 02:01:11;;;;;;;15.28;11.90;;;;;;;14.20;100.00;99166.19;1624562;87;20208;-66
2021/05/28 02:03:39;;;;;;;16.30;13.25;;;;;;;14.19;100.00;99168.09;1632238;87;20960;-66
2021/05/28 02:06:05;;;;;;;15.13;13.15;;;;;;;14.19;100.00;99165.39;1631228;87;21495;-65
2021/05/28 02:08:32;;;;;;;20.92;16.87;;;;;;;14.19;100.00;99161.34;1630265;87;21159;-66
2021/05/28 02:10:59;;;;;;;18.87;16.87;;;;;;;14.22;100.00;99158.61;1631830;87;21013;-66
2021/05/28 02:13:27;;;;;;;20.70;18.60;;;;;;;14.25;100.00;99151.28;1632067;87;21026;-66
2021/05/28 02:15:55;;;;;;;23.15;18.73;;;;;;;14.31;100.00;99151.49;1633358;87;21001;-65
2021/05/28 02:18:23;;;;;;;21.97;19.60;;;;;;;14.34;100.00;99142.81;1631957;87;21145;-65
2021/05/28 02:20:49;;;;;;;21.82;19.57;;;;;;;14.30;100.00;99143.12;1631055;87;21127;-65
2021/05/28 02:23:16;;;;;;;21.85;18.37;;;;;;;14.30;100.00;99141.77;1630108;87;21049;-65
2021/05/28 02:25:43;;;;;;;22.60;18.95;;;;;;;14.27;100.00;99141.80;1633748;87;21598;-65
2021/05/28 02:28:11;;;;;;;21.02;18.82;;;;;;;14.27;100.00;99145.05;1633534;87;21097;-66
2021/05/28 02:30:38;;;;;;;22.40;18.42;;;;;;;14.25;100.00;99141.83;1633146;87;21005;-64
2021/05/28 02:33:04;;;;;;;21.07;18.80;;;;;;;14.24;100.00;99136.98;1632430;87;21776;-65
2021/05/28 02:35:33;;;;;;;22.17;19.10;;;;;;;14.24;100.00;99132.94;1632931;86;21089;-64
2021/05/28 02:37:59;;;;;;;21.97;17.37;;;;;;;14.24;100.00;99140.23;1632770;87;20994;-63
2021/05/28 02:40:28;;;;;;;20.25;17.12;;;;;;;14.24;100.00;99145.08;1645619;85;20989;-65
2021/05/28 02:42:55;;;;;;;22.25;17.85;;;;;;;14.23;100.00;99149.41;1641888;86;21594;-65
2021/05/28 02:45:22;;;;;;;23.50;18.73;;;;;;;14.23;100.00;99152.11;1649996;86;21168;-62
2021/05/28 02:47:49;;;;;;;23.67;16.73;;;;;;;14.24;100.00;99149.13;1608323;87;21055;-65
2021/05/28 02:50:16;;;;;;;18.75;16.75;;;;;;;14.23;100.00;99151.55;1608045;87;20964;-64
2021/05/28 02:52:43;;;;;;;21.57;18.15;;;;;;;14.23;100.00;99154.25;1608194;87;21021;-64
2021/05/28 02:55:11;;;;;;;19.90;15.65;;;;;;;14.23;100.00;99158.30;1607663;87;21495;-65
2021/05/28 02:57:39;;;;;;;18.12;15.48;;;;;;;14.21;100.00;99153.77;1616830;87;21119;-63
2021/05/28 03:00:08;;;;;;;20.60;15.65;;;;;;;14.17;100.00;99154.06;1609999;87;21059;-65
2021/05/28 03:02:35;;;;;;;16.40;14.78;;;;;;;14.18;100.00;99153.52;1612027;87;20992;-64
2021/05/28 03:05:02;;;;;;;16.42;14.80;;;;;;;14.17;100.00;99155.97;1612563;87;21128;-64
2021/05/28 03:07:29;;;;;;;16.77;14.25;;;;;;;14.15;100.00;99159.73;1609908;87;21032;-63
2021/05/28 03:09:57;;;;;;;17.98;15.68;;;;;;;14.16;100.00;99152.47;1618154;87;21191;-65
2021/05/28 03:12:24;;;;;;;;;;;;;;;14.15;100.00;99148.95;1614569;87;21097;-65
2021/05/28 03:14:51;;;;;;;22.75;18.95;;;;;;;14.19;100.00;99145.70;1594470;87;20767;-66
2021/05/28 03:17:17;;;;;;;23.45;19.80;;;;;;;14.24;100.00;99142.94;1582832;89;20920;-64
2021/05/28 03:19:47;;;;;;;20.72;18.62;;;;;;;14.29;100.00;99146.92;1587230;88;21616;-65
2021/05/28 03:24:42;;;;;;;24.82;20.37;;;;;;;14.35;100.00;99155.20;1584529;89;21107;-64
2021/05/28 03:27:10;;;;;;;24.77;20.23;;;;;;;14.39;100.00;99156.80;1592384;87;20983;-65
2021/05/28 03:29:37;;;;;;;25.70;19.67;;;;;;;14.40;100.00;99158.39;1582448;89;21148;-65
2021/05/28 03:32:06;;;;;;;29.80;22.15;;;;;;;14.45;100.00;99155.63;1589044;87;21039;-65
2021/05/28 03:34:33;;;;;;;23.87;21.40;;;;;;;14.47;100.00;99161.55;1582639;89;21120;-65
2021/05/28 03:37:01;;;;;;;29.10;22.22;;;;;;;14.48;100.00;99163.17;1584161;87;21083;-66
2021/05/28 03:39:29;;;;;;;19.67;17.10;;;;;;;14.51;100.00;99152.59;1582307;89;20948;-66
2021/05/28 03:41:56;;;;;;;18.62;16.65;;;;;;;14.51;100.00;99163.94;1588285;87;21647;-66
2021/05/28 03:44:23;;;;;;;17.57;15.78;;;;;;;14.50;100.00;99166.36;1582412;88;21080;-66
2021/05/28 03:46:49;;;;;;;17.90;15.98;;;;;;;14.48;100.00;99165.88;1590158;89;21128;-66
2021/05/28 03:49:16;;;;;;;18.73;16.82;;;;;;;14.48;100.00;99173.98;1561767;89;21672;-64
2021/05/28 03:51:43;;;;;;;18.42;16.45;;;;;;;14.49;100.00;99168.82;1582080;88;21019;-67
2021/05/28 03:54:10;;;;;;;19.75;17.67;;;;;;;14.49;100.00;99175.57;1592277;87;20915;-64
2021/05/28 03:56:38;;;;;;;18.52;16.62;;;;;;;14.51;100.00;99177.44;1622342;87;26847;-67
2021/05/28 03:59:04;;;;;;;18.00;15.85;;;;;;;14.54;100.00;99171.48;1628244;87;21795;-65
2021/05/28 04:01:31;;;;;;;19.52;17.35;;;;;;;14.57;100.00;99167.64;1619179;87;21610;-65
2021/05/28 04:03:59;;;;;;;20.33;18.33;;;;;;;14.60;100.00;99173.05;1629059;87;21683;-66
2021/05/28 04:06:26;;;;;;;19.67;16.02;;;;;;;14.67;100.00;99174.81;1622393;87;21577;-66
2021/05/28 04:08:53;;;;;;;20.68;17.10;;;;;;;14.71;100.00;99167.75;1610971;87;21037;-64
2021/05/28 04:11:20;;;;;;;16.02;13.95;;;;;;;14.71;100.00;99170.45;1611597;87;21726;-65
2021/05/28 04:13:47;;;;;;;17.87;15.98;;;;;;;14.75;100.00;99170.70;1611376;87;21070;-64
2021/05/28 04:16:15;;;;;;;18.40;14.63;;;;;;;14.79;100.00;99171.70;1612699;87;21012;-65
2021/05/28 04:18:43;;;;;;;16.37;14.63;;;;;;;14.78;100.00;99178.20;1612728;87;21064;-65
2021/05/28 04:21:11;;;;;;;19.52;13.83;;;;;;;14.82;100.00;99181.95;1623975;87;21049;-65
2021/05/28 04:23:37;;;;;;;17.87;14.53;;;;;;;14.87;100.00;99180.53;1623874;87;21107;-65
2021/05/28 04:26:05;;;;;;;15.98;14.28;;;;;;;14.85;100.00;99173.25;1622958;87;21220;-65
2021/05/28 04:28:34;;;;;;;13.58;12.15;;;;;;;14.90;100.00;99178.58;1616482;87;21662;-65
2021/05/28 04:31:03;;;;;;;17.75;14.47;;;;;;;14.91;100.00;99180.73;1629628;87;21113;-64
2021/05/28 04:33:30;;;;;;;14.10;12.68;;;;;;;14.96;100.00;99181.45;1619346;87;21183;-64
2021/05/28 04:35:57;;;;;;;15.25;13.25;;;;;;;15.07;100.00;99174.58;1619765;87;21670;-63
2021/05/28 04:38:24;;;;;;;14.30;12.90;;;;;;;15.15;100.00;99177.97;1609294;87;20988;-64
2021/05/28 04:40:53;;;;;;;17.65;13.60;;;;;;;15.22;100.00;99185.16;1618244;87;21131;-65
2021/05/28 04:43:24;;;;;;;17.10;13.88;;;;;;;15.27;100.00;99178.32;1656404;85;21066;-66
2021/05/28 04:45:53;;;;;;;15.00;13.45;;;;;;;15.33;100.00;99179.04;1623300;87;21656;-66
2021/05/28 04:48:32;;;;;;;13.80;12.47;;;;;;;15.41;100.00;99179.75;1622670;87;21125;-67
2021/05/28 04:51:00;;;;;;;15.23;13.70;;;;;;;15.52;100.00;99180.38;1626407;85;21615;-65
2021/05/28 04:53:27;;;;;;;13.43;12.07;;;;;;;15.55;100.00;99181.92;1656445;85;21039;-66
2021/05/28 04:55:55;;;;;;;14.07;12.55;;;;;;;15.53;100.00;99179.27;1659414;85;22088;-66
2021/05/28 04:58:27;;;;;;;14.78;11.35;;;;;;;15.51;100.00;99182.28;1622230;85;21700;-66
2021/05/28 05:00:59;;;;;;;15.13;11.95;;;;;;;15.51;100.00;99186.34;1656447;85;21107;-66
2021/05/28 05:03:30;;;;;;;14.85;11.35;;;;;;;15.49;100.00;99184.47;1615188;87;21139;-63
2021/05/28 05:05:57;;;;;;;14.35;12.95;;;;;;;15.49;100.00;99189.09;1654280;85;21032;-63
2021/05/28 05:08:30;;;;;;;15.32;13.75;;;;;;;15.47;100.00;99186.66;1655855;85;21606;-65
2021/05/28 05:11:04;;;;;;;16.67;12.03;;;;;;;15.49;100.00;99188.53;1659766;85;21120;-64
2021/05/28 05:13:35;;;;;;;13.75;12.45;;;;;;;15.45;100.00;99186.16;1657610;85;21385;-64
2021/05/28 05:16:09;;;;;;;17.05;13.53;;;;;;;15.37;100.00;99187.63;1656564;85;21113;-65
2021/05/28 05:18:48;;;;;;;15.23;13.68;;;;;;;15.36;100.00;99186.55;1650138;85;21076;-64
2021/05/28 05:21:18;;;;;;;20.85;14.45;;;;;;;15.37;100.00;99191.69;1652352;85;21712;-64
2021/05/28 05:23:46;;;;;;;13.83;12.07;;;;;;;15.34;100.00;99189.58;1653824;85;21595;-64
2021/05/28 05:26:15;;;;;;;17.92;13.95;;;;;;;15.34;100.00;99192.83;1652541;85;21176;-66
2021/05/28 05:28:46;;;;;;;18.05;15.32;;;;;;;15.28;100.00;99193.99;1652914;85;21060;-67
2021/05/28 05:31:19;;;;;;;21.30;17.90;;;;;;;15.27;100.00;99187.79;1653036;85;21061;-66
2021/05/28 05:33:47;;;;;;;21.90;17.15;;;;;;;15.33;100.00;99191.20;1651045;85;21085;-67
2021/05/28 05:36:14;;;;;;;18.92;14.85;;;;;;;15.42;100.00;99187.55;1653542;85;21073;-64
2021/05/28 05:38:41;;;;;;;17.70;14.47;;;;;;;15.50;100.00;99190.68;1649642;85;21139;-65
2021/05/28 05:41:10;;;;;;;17.60;14.38;;;;;;;15.52;100.00;99190.64;1646867;85;21136;-63
2021/05/28 05:43:40;;;;;;;16.37;14.43;;;;;;;15.54;100.00;99194.41;1630682;87;21144;-63
2021/05/28 05:46:07;;;;;;;16.17;14.50;;;;;;;15.54;100.00;99193.06;1630802;87;21132;-63
2021/05/28 05:51:14;;;;;;;20.55;15.75;;;;;;;15.49;100.00;99191.79;1796373;77;22279;-62
2021/05/28 05:53:46;;;;;;;19.05;14.15;;;;;;;15.41;100.00;99192.71;1800186;78;21577;-63
2021/05/28 05:56:13;;;;;;;24.92;18.23;;;;;;;15.48;100.00;99192.87;1796417;78;21084;-63
2021/05/28 05:58:43;;;;;;;21.45;18.30;;;;;;;15.60;100.00;99185.89;1798627;78;21576;-66
2021/05/28 06:01:12;;;;;;;18.98;16.80;;;;;;;15.80;100.00;99191.57;1782694;78;21061;-63
2021/05/28 06:03:40;;;;;;;23.70;20.00;;;;;;;15.96;100.00;99196.15;1803300;78;20993;-65
2021/05/28 06:06:07;;;;;;;22.82;18.30;;;;;;;16.12;100.00;99194.52;1800676;78;20926;-62
2021/05/28 06:08:35;;;;;;;26.65;19.17;;;;;;;16.20;100.00;99183.80;1806541;78;21094;-63
2021/05/28 06:11:02;;;;;;;27.20;19.05;;;;;;;16.29;100.00;99186.08;1799619;78;20993;-64
2021/05/28 06:13:33;;;;;;;26.90;18.73;;;;;;;16.42;100.00;99183.11;1797064;78;20989;-67
2021/05/28 06:16:00;;;;;;;26.68;18.77;;;;;;;16.54;100.00;99179.91;1796565;78;21061;-64
2021/05/28 06:18:29;;;;;;;31.30;19.92;;;;;;;16.67;100.00;99178.28;1807509;78;21153;-63
2021/05/28 06:20:57;;;;;;;25.97;19.10;;;;;;;16.65;100.00;99177.22;1800823;78;21019;-64
2021/05/28 06:23:24;;;;;;;29.77;19.35;;;;;;;16.74;100.00;99171.89;1800172;78;21081;-65
2021/05/28 06:25:56;;;;;;;27.02;21.10;;;;;;;16.92;100.00;99169.61;1793593;78;21026;-63
2021/05/28 06:28:27;;;;;;;33.98;20.72;;;;;;;17.00;100.00;99171.36;1763858;78;21675;-65
2021/05/28 06:30:54;;;;;;;30.55;19.37;;;;;;;17.06;100.00;99172.86;1799562;78;21084;-63
2021/05/28 06:33:21;;;;;;;28.77;19.57;;;;;;;17.02;100.00;99173.22;1794914;78;21068;-66
2021/05/28 06:35:48;;;;;;;31.15;20.97;;;;;;;17.03;100.00;99168.85;1790705;78;20863;-65
2021/05/28 06:38:15;;;;;;;28.95;21.00;;;;;;;17.00;100.00;99163.22;1799487;78;20918;-66
2021/05/28 06:40:42;;;;;;;30.30;22.42;;;;;;;17.07;100.00;99164.41;1745728;80;21632;-62
2021/05/28 06:43:09;;;;;;;33.92;23.60;;;;;;;17.26;100.00;99172.38;1733505;81;21964;-66
2021/05/28 06:45:36;;;;;;;38.23;22.25;;;;;;;17.45;100.00;99176.84;1740570;81;21124;-64
2021/05/28 06:48:04;;;;;;;40.73;23.95;;;;;;;17.51;100.00;99179.66;1740671;81;20997;-65
2021/05/28 06:50:31;;;;;;;33.50;20.80;;;;;;;17.52;100.00;99184.80;1732583;81;21106;-65
2021/05/28 06:52:59;;;;;;;29.32;20.68;;;;;;;17.86;100.00;99179.91;1733029;81;21571;-66
2021/05/28 06:55:27;;;;;;;25.57;18.77;;;;;;;18.20;100.00;99179.27;1743160;81;21056;-64
2021/05/28 06:57:55;;;;;;;27.55;20.05;;;;;;;18.28;100.00;99176.38;1794057;78;21237;-65
2021/05/28 07:00:22;;;;;;;25.85;17.87;;;;;;;17.97;100.00;99185.33;1796368;79;20975;-65
2021/05/28 07:02:49;;;;;;;22.35;18.05;;;;;;;17.89;100.00;99188.24;1782529;79;20981;-66
2021/05/28 07:05:16;;;;;;;24.65;18.52;;;;;;;17.72;100.00;99178.62;1787805;79;20966;-65
2021/05/28 07:07:46;;;;;;;24.27;18.23;;;;;;;17.53;100.00;99182.88;1728800;82;21071;-65
2021/05/28 07:10:18;;;;;;;23.75;18.17;;;;;;;17.57;100.00;99187.38;1788087;79;21132;-66
2021/05/28 07:12:45;;;;;;;21.35;16.07;;;;;;;17.62;100.00;99192.45;1784246;78;21579;-66
2021/05/28 07:15:14;;;;;;;18.10;15.10;;;;;;;17.71;100.00;99183.78;1787707;79;20994;-65
2021/05/28 07:17:40;;;;;;;;;;;;;;;17.85;100.00;99185.90;1783755;79;21136;-66
2021/05/28 07:20:08;;;;;;;24.12;16.05;;;;;;;18.08;100.00;99183.13;1787602;79;20147;-62
2021/05/28 07:22:35;;;;;;;19.00;14.00;;;;;;;18.62;100.00;99184.63;1794628;79;21086;-64
2021/05/28 07:25:02;;;;;;;19.67;15.18;;;;;;;19.63;100.00;99178.30;1733231;82;20971;-63
2021/05/28 07:27:30;;;;;;;15.93;12.90;;;;;;;20.19;100.00;99180.50;1785631;79;21506;-64
2021/05/28 07:29:58;;;;;;;15.90;11.40;;;;;;;20.60;100.00;99181.76;1781626;79;20999;-65
2021/05/28 07:32:25;;;;;;;16.67;11.33;;;;;;;21.17;100.00;99177.70;1787747;79;21125;-66
2021/05/28 07:34:52;;;;;;;15.00;10.53;;;;;;;22.06;100.00;99174.61;1793316;79;21089;-65
2021/05/28 07:37:19;;;;;;;13.53;8.47;;;;;;;22.78;100.00;99176.91;1787185;79;20990;-64
2021/05/28 07:39:48;;;;;;;10.60;8.45;;;;;;;22.81;100.00;99172.14;1781583;79;21053;-65
2021/05/28 07:42:16;;;;;;;10.00;8.33;;;;;;;22.76;100.00;99172.34;1786863;79;21029;-62
2021/05/28 07:44:43;;;;;;;9.68;8.50;;;;;;;22.87;100.00;99172.91;1790825;79;21489;-65
2021/05/28 07:47:11;;;;;;;13.32;9.48;;;;;;;22.89;100.00;99169.25;1741766;81;21108;-62
2021/05/28 07:49:39;;;;;;;13.15;10.18;;;;;;;22.48;100.00;99164.86;1732458;81;21679;-65
2021/05/28 07:52:08;;;;;;;13.48;8.95;;;;;;;22.21;100.00;99160.88;1733561;81;20953;-65
2021/05/28 07:54:36;;;;;;;10.82;8.55;;;;;;;22.52;100.00;99169.09;1739008;81;21045;-65
2021/05/28 07:57:06;;;;;;;11.40;10.00;;;;;;;22.95;100.00;99171.17;1746367;81;21009;-64
2021/05/28 07:59:36;;;;;;;10.95;8.33;;;;;;;23.09;100.00;99169.47;1740485;81;21030;-65
2021/05/28 08:02:03;;;;;;;10.28;9.00;;;;;;;22.47;100.00;99169.53;1746102;81;20914;-66
2021/05/28 08:04:29;;;;;;;11.10;8.48;;;;;;;21.82;100.00;99159.75;1733904;81;20922;-65
2021/05/28 08:06:56;;;;;;;10.88;8.83;;;;;;;21.47;100.00;99162.63;1734249;81;21030;-64
2021/05/28 08:09:23;;;;;;;9.67;8.37;;;;;;;21.48;100.00;99165.00;1734258;81;21512;-65
2021/05/28 08:11:52;;;;;;;10.65;8.75;;;;;;;21.16;100.00;99153.69;1744208;81;21108;-66
2021/05/28 08:14:19;;;;;;;10.30;8.10;;;;;;;20.90;100.00;99159.94;1728592;81;20998;-65
2021/05/28 08:16:45;;;;;;;8.43;7.40;;;;;;;20.85;100.00;99152.75;1727959;81;21083;-64
2021/05/28 08:19:14;;;;;;;8.30;7.40;;;;;;;20.89;100.00;99153.66;1744392;81;21022;-64
2021/05/28 08:21:41;;;;;;;9.03;8.00;;;;;;;20.66;100.00;99148.30;1741127;81;20963;-65
2021/05/28 08:24:10;;;;;;;11.75;8.48;;;;;;;20.57;100.00;99155.16;1735927;81;21559;-64
2021/05/28 08:26:37;;;;;;;12.30;8.68;;;;;;;20.48;100.00;99148.92;1748461;81;20970;-63
2021/05/28 08:29:05;;;;;;;15.63;7.15;;;;;;;20.61;100.00;99152.02;1750869;81;21062;-65
2021/05/28 08:31:33;;;;;;;9.90;7.12;;;;;;;20.86;100.00;99150.81;1735241;81;21106;-65
2021/05/28 08:34:00;;;;;;;15.55;8.50;;;;;;;21.12;100.00;99151.41;1740083;81;20907;-64
2021/05/28 08:36:27;;;;;;;12.33;8.53;;;;;;;21.58;100.00;99156.41;1776092;79;21045;-64
2021/05/28 08:38:54;;;;;;;9.60;7.80;;;;;;;21.92;100.00;99162.62;1729331;82;21721;-64
2021/05/28 08:41:22;;;;;;;13.50;7.90;;;;;;;21.89;100.00;99159.78;1732030;82;20956;-65
2021/05/28 08:43:58;;;;;;;15.83;14.23;;;;;;;21.59;100.00;99156.63;1764456;80;21048;-65
2021/05/28 08:46:24;;;;;;;22.82;15.13;;;;;;;21.27;100.00;99154.67;1794878;79;20979;-65
2021/05/28 08:48:51;;;;;;;14.78;11.95;;;;;;;20.90;100.00;99153.13;1792409;79;21701;-64
2021/05/28 08:51:19;;;;;;;14.85;10.40;;;;;;;20.55;100.00;99147.87;1797931;78;20974;-67
2021/05/28 08:53:46;;;;;;;13.18;10.15;;;;;;;20.11;100.00;99146.72;1770565;79;21581;-64
2021/05/28 08:56:16;;;;;;;15.35;10.75;;;;;;;19.89;100.00;99143.67;1766458;81;20997;-63
2021/05/28 08:58:45;;;;;;;15.32;10.78;;;;;;;19.77;100.00;99143.55;1760013;81;21012;-63
2021/05/28 09:01:14;;;;;;;15.45;11.45;;;;;;;19.71;100.00;99135.30;1747281;81;21086;-64
2021/05/28 09:03:51;;;;;;;15.30;9.78;;;;;;;19.82;100.00;99138.47;1756380;79;21000;-64
2021/05/28 09:06:18;;;;;;;10.15;9.10;;;;;;;19.99;100.00;99145.78;1742307;81;21064;-65
2021/05/28 09:08:46;;;;;;;10.48;9.48;;;;;;;20.00;100.00;99137.86;1739528;81;21594;-64
2021/05/28 09:11:19;;;;;;;12.10;9.95;;;;;;;20.19;100.00;99131.45;1737616;81;20996;-66
2021/05/28 09:13:51;;;;;;;9.28;8.38;;;;;;;20.28;100.00;99134.91;1727894;81;21066;-64
2021/05/28 09:16:24;;;;;;;10.15;9.05;;;;;;;20.24;100.00;99130.48;1753175;81;21024;-62
2021/05/28 09:18:57;;;;;;;11.83;10.58;;;;;;;20.25;100.00;99136.94;1740534;81;20953;-64
2021/05/28 09:21:32;;;;;;;11.18;9.00;;;;;;;20.20;100.00;99133.61;1737058;81;21579;-69
2021/05/28 09:24:01;;;;;;;10.30;8.63;;;;;;;20.27;100.00;99132.53;1743231;81;21779;-65
2021/05/28 09:26:29;;;;;;;15.10;10.55;;;;;;;20.62;100.00;99133.16;1736986;81;21562;-65
2021/05/28 09:28:58;;;;;;;10.00;9.00;;;;;;;21.28;100.00;99132.48;1739741;81;21563;-63
2021/05/28 09:31:34;;;;;;;9.15;8.20;;;;;;;21.77;100.00;99135.96;1748697;81;20905;-64
2021/05/28 09:34:04;;;;;;;9.05;7.70;;;;;;;22.20;100.00;99132.75;1760265;81;20977;-66
2021/05/28 09:36:36;;;;;;;11.00;8.60;;;;;;;22.40;100.00;99127.50;1736570;81;21084;-64
2021/05/28 09:39:14;;;;;;;9.05;7.25;;;;;;;22.67;100.00;99131.45;1751383;81;21123;-65
2021/05/28 09:41:56;;;;;;;10.70;7.55;;;;;;;23.09;100.00;99132.52;1737638;81;20933;-67
2021/05/28 09:44:36;;;;;;;8.50;6.95;;;;;;;23.39;100.00;99128.05;1736769;81;21558;-66
2021/05/28 09:47:17;;;;;;;7.50;5.78;;;;;;;23.31;100.00;99123.75;1756854;79;21475;-67
2021/05/28 09:49:51;;;;;;;6.50;5.50;;;;;;;23.41;100.00;99125.19;1759814;79;21080;-66
2021/05/28 09:52:32;;;;;;;7.78;5.72;;;;;;;23.23;100.00;99125.29;1744024;81;22251;-65
2021/05/28 09:55:05;;;;;;;8.85;5.30;;;;;;;23.45;100.00;99119.83;1790018;79;21021;-64
2021/05/28 09:57:43;;;;;;;6.75;6.05;;;;;;;23.73;100.00;99117.06;1751116;79;21009;-66
2021/05/28 10:00:33;;;;;;;10.50;6.03;;;;;;;23.54;100.00;99117.16;1791721;79;20980;-67
2021/05/28 10:03:22;;;;;;;8.83;6.47;;;;;;;23.71;100.00;99116.58;1788625;79;21568;-67
2021/05/28 10:05:56;;;;;;;5.70;4.85;;;;;;;23.86;100.00;99119.95;1794074;79;21106;-66
2021/05/28 10:08:26;;;;;;;9.58;4.95;;;;;;;24.27;99.72;99115.63;1794026;79;21073;-66
2021/05/28 10:10:55;;;;;;;5.97;4.62;;;;;;;23.93;99.26;99106.98;1788057;79;21557;-67
2021/05/28 10:13:28;;;;;;;7.78;5.55;;;;;;;23.81;99.58;99109.23;1787505;79;20946;-65
2021/05/28 10:16:06;;;;;;;9.75;6.00;;;;;;;23.68;100.00;99102.22;1791794;78;20962;-67
2021/05/28 10:18:36;;;;;;;;;;;;;;;23.68;100.00;99091.27;1754750;80;21156;-67
2021/05/28 10:21:05;;;;;;;7.58;4.90;;;;;;;23.56;100.00;99094.08;1753017;80;20544;-66
2021/05/28 10:23:32;;;;;;;9.88;4.90;;;;;;;23.73;100.00;99091.81;1723490;81;21140;-68
2021/05/28 10:26:01;;;;;;;7.40;4.55;;;;;;;23.77;100.00;99093.30;1681591;83;21106;-67
2021/05/28 10:28:36;;;;;;;5.70;4.10;;;;;;;23.70;99.52;99093.08;1711857;83;21140;-68
2021/05/28 10:31:05;;;;;;;5.13;4.50;;;;;;;23.41;100.00;99091.54;1680038;84;21089;-66
2021/05/28 10:33:39;;;;;;;5.17;4.20;;;;;;;23.23;100.00;99091.86;1743132;81;21117;-65
2021/05/28 10:36:11;;;;;;;7.15;4.58;;;;;;;23.60;100.00;99084.81;1729295;81;20943;-68
2021/05/28 10:38:54;;;;;;;6.78;4.50;;;;;;;23.70;100.00;99084.28;1725519;81;21079;-67
2021/05/28 10:41:39;;;;;;;6.12;3.90;;;;;;;24.06;99.71;99087.94;1725098;81;20986;-71
2021/05/28 10:44:07;;;;;;;6.53;4.45;;;;;;;24.48;93.51;99080.50;1731873;81;21489;-67
2021/05/28 10:46:50;;;;;;;6.75;4.35;;;;;;;24.50;97.43;99085.61;1724443;81;20972;-71
2021/05/28 10:49:18;;;;;;;4.28;3.85;;;;;;;24.37;92.07;99080.80;1750899;81;21582;-67
2021/05/28 10:54:26;;;;;;;5.08;3.37;;;;;;;24.28;84.76;99077.48;1730856;81;21162;-67
2021/05/28 10:56:55;;;;;;;4.92;3.50;;;;;;;24.48;80.45;99072.27;1747278;82;21109;-67
2021/05/28 10:59:25;;;;;;;5.40;4.03;;;;;;;24.74;87.48;99073.59;1747410;82;21112;-66
2021/05/28 11:01:58;;;;;;;5.50;3.90;;;;;;;24.69;84.75;99073.88;1747388;82;21029;-67
2021/05/28 11:07:18;;;;;;;4.70;3.85;;;;;;;24.32;83.04;99061.30;1648031;85;21151;-68
2021/05/28 11:09:52;;;;;;;6.90;4.70;;;;;;;23.83;85.88;99069.16;1646945;87;21481;-66
2021/05/28 11:12:32;;;;;;;7.55;3.75;;;;;;;23.57;90.91;99066.34;1646436;85;21093;-69
2021/05/28 11:15:31;;;;;;;7.67;4.20;;;;;;;23.40;93.49;99052.99;1664103;84;21047;-67
2021/05/28 11:18:08;;;;;;;5.45;3.98;;;;;;;23.33;93.40;99055.75;1697282;84;21650;-68
2021/05/28 11:20:42;;;;;;;5.17;4.22;;;;;;;23.20;94.06;99051.50;1662163;86;21078;-68
2021/05/28 11:23:19;;;;;;;5.83;4.72;;;;;;;23.14;97.03;99047.98;1663539;86;21840;-67
2021/05/28 11:25:53;;;;;;;5.55;4.20;;;;;;;23.18;96.83;99044.20;1662491;85;21150;-68
2021/05/28 11:28:23;;;;;;;8.78;4.85;;;;;;;23.12;97.13;99041.48;1660031;85;21031;-68
2021/05/28 11:31:06;;;;;;;5.65;4.20;;;;;;;23.07;95.56;99039.00;1634982;87;21805;-68
2021/05/28 11:33:43;;;;;;;5.47;3.77;;;;;;;22.92;96.94;99030.95;1663744;85;21126;-68
2021/05/28 11:36:40;;;;;;;5.00;3.98;;;;;;;22.85;98.36;99032.11;1663147;86;21106;-68